SLC Intl Airport
, Salt Lake City
Last Weather Update:02/23/2012 7:00:00 PM
Date
ETo
ETc
Rain
Irrigation
Req
Temp
Max
Temp
Min
Temp
Avg
Avg RH
Avg Wind
Avg Solar
inches
inches
incehs
inches
F
F
F
%
%
watts/m2
01/01/2012 0.04" 0.00" 0.00" 0.00" 41.6° 21.9° 30.3° 53.3% 2.5 MPH 112.8w/m2
01/02/2012 0.03" 0.00" 0.00" 0.00" 43.8° 21.1° 30.2° 67.4% 2.1 MPH 106.6w/m2
01/03/2012 0.04" 0.00" 0.00" 0.00" 44.9° 25.8° 33.6° 65.6% 2.9 MPH 109.8w/m2
01/04/2012 0.04" 0.00" 0.00" 0.00" 45.9° 22.3° 32.7° 67.6% 2.6 MPH 103.7w/m2
01/05/2012 0.04" 0.00" 0.00" 0.00" 48.4° 22.6° 33.1° 68.3% 3.1 MPH 108.4w/m2
01/06/2012 0.04" 0.00" 0.00" 0.00" 42.9° 24.0° 33.2° 70.8% 2.3 MPH 109.9w/m2
01/07/2012 0.01" 0.00" 0.21" -0.17" 34.7° 20.3° 30.5° 83.1% 4.8 MPH 37.6w/m2
01/08/2012 0.03" 0.00" 0.00" 0.00" 34.1° 14.4° 24.6° 76.6% 2.7 MPH 104.7w/m2
01/09/2012 0.03" 0.00" 0.00" 0.00" 36.6° 21.3° 27.8° 74.3% 2.7 MPH 111.7w/m2
01/10/2012 0.03" 0.00" 0.00" 0.00" 36.0° 18.5° 28.0° 79.0% 2.8 MPH 102.0w/m2
01/11/2012 0.04" 0.00" 0.00" 0.00" 34.3° 21.2° 26.9° 66.5% 4.1 MPH 119.8w/m2
01/12/2012 0.03" 0.00" 0.00" 0.00" 32.2° 14.6° 22.8° 62.2% 2.3 MPH 124.6w/m2
01/13/2012 0.04" 0.00" 0.00" 0.00" 35.3° 17.5° 25.4° 59.7% 2.7 MPH 122.6w/m2
01/14/2012 0.04" 0.00" 0.00" 0.00" 40.6° 16.4° 26.5° 67.5% 2.4 MPH 121.8w/m2
01/15/2012 0.14" 0.00" 0.00" 0.00" 53.6° 20.4° 44.8° 25.2% 14.4 MPH 45.8w/m2
01/16/2012 0.04" 0.00" 0.00" 0.00" 47.8° 18.1° 25.7° 58.9% 7.7 MPH 86.0w/m2
01/17/2012 0.05" 0.00" 0.00" 0.00" 35.7° 14.0° 23.5° 49.4% 5.8 MPH 133.6w/m2
01/18/2012 0.06" 0.00" 0.22" -0.18" 45.2° 26.5° 37.8° 49.9% 8.3 MPH 42.2w/m2
01/19/2012 0.05" 0.00" 0.03" -0.02" 54.1° 38.6° 44.6° 61.6% 5.6 MPH 30.2w/m2
01/20/2012 0.06" 0.00" 0.01" -0.01" 52.9° 38.0° 46.0° 58.8% 5.1 MPH 75.6w/m2
01/21/2012 0.04" 0.00" 0.83" -0.66" 53.1° 32.7° 42.3° 70.0% 11.3 MPH 6.5w/m2
01/22/2012 0.06" 0.00" 0.00" 0.00" 41.0° 29.5° 34.8° 58.6% 5.8 MPH 129.4w/m2
01/23/2012 0.04" 0.00" 0.02" -0.02" 42.8° 32.3° 35.8° 65.9% 5.6 MPH 49.9w/m2
01/24/2012 0.04" 0.00" 0.19" -0.15" 37.7° 28.0° 32.4° 78.0% 3.9 MPH 133.4w/m2
01/25/2012 0.05" 0.00" 0.00" 0.00" 45.6° 32.0° 37.8° 60.8% 6.2 MPH 109.5w/m2
01/26/2012 0.03" 0.00" 0.09" -0.07" 47.6° 33.3° 40.0° 71.3% 5.4 MPH 36.6w/m2
01/27/2012 0.05" 0.00" 0.00" 0.00" 40.0° 26.8° 32.6° 64.4% 5.8 MPH 143.9w/m2
01/28/2012 0.05" 0.00" 0.00" 0.00" 39.9° 22.2° 29.5° 61.3% 4.1 MPH 139.5w/m2
01/29/2012 0.05" 0.00" 0.00" 0.00" 43.5° 24.4° 31.8° 59.4% 3.5 MPH 111.9w/m2
01/30/2012 0.03" 0.00" 0.00" 0.00" 45.9° 24.0° 32.2° 70.9% 3.1 MPH 80.4w/m2
01/31/2012 0.05" 0.00" 0.00" 0.00" 46.3° 24.0° 32.5° 71.7% 2.9 MPH 122.4w/m2
Totals: 1.37" 0.00" 1.60" -1.28" 54.1° 14.0° 32.6° 64.4% 4.7 MPH 95.9w/m2